Time;durP1;ratioP1;P1;durP2;ratioP2;P2;SDS_P1;SDS_P2;PMS_P1;PMS_P2;Temp;Humidity;BMP_temperature;BMP_pressure;BME280_temperature;BME280_humidity;BME280_pressure;Samples;Min_cycle;Max_cycle;Signal;HPM_P1;HPM_P2
2021/05/02 00:00:23;;;;;;;5.30;2.87;;;;;;;22.26;53.05;100076.56;1712879;82;21509;-61
2021/05/02 00:02:52;;;;;;;3.37;2.65;;;;;;;22.25;53.07;100072.17;1714121;82;21204;-61
2021/05/02 00:05:21;;;;;;;4.40;2.55;;;;;;;22.24;53.08;100077.47;1713745;82;21583;-61
2021/05/02 00:07:47;;;;;;;4.20;2.70;;;;;;;22.24;53.07;100058.08;1714186;82;21231;-62
2021/05/02 00:10:15;;;;;;;4.72;2.90;;;;;;;22.24;53.09;100058.65;1696065;82;21218;-61
2021/05/02 00:12:42;;;;;;;5.12;2.67;;;;;;;22.24;53.12;100079.43;1713985;82;21137;-61
2021/05/02 00:15:11;;;;;;;4.40;2.70;;;;;;;22.22;53.13;100067.33;1713960;82;21176;-61
2021/05/02 00:17:41;;;;;;;3.25;2.45;;;;;;;22.23;53.15;100081.99;1714103;82;21157;-61
2021/05/02 00:20:09;;;;;;;3.87;2.62;;;;;;;22.21;53.16;100076.79;1714433;82;21599;-62
2021/05/02 00:22:38;;;;;;;3.83;2.42;;;;;;;22.22;53.16;100070.67;1710937;82;21141;-61
2021/05/02 00:25:06;;;;;;;3.42;2.65;;;;;;;22.23;53.15;100081.99;1711953;82;21208;-61
2021/05/02 00:27:33;;;;;;;2.77;2.30;;;;;;;22.20;53.18;100073.78;1714389;83;21185;-61
2021/05/02 00:29:59;;;;;;;5.50;2.77;;;;;;;22.21;53.20;100059.35;1711541;82;21172;-61
2021/05/02 00:32:27;;;;;;;6.00;2.50;;;;;;;22.20;53.22;100048.03;1712444;82;21199;-61
2021/05/02 00:34:53;;;;;;;3.15;2.25;;;;;;;22.20;53.22;100043.87;1708550;82;21277;-62
2021/05/02 00:37:20;;;;;;;3.40;2.60;;;;;;;22.20;53.23;100039.72;1658749;85;21449;-61
2021/05/02 00:39:47;;;;;;;3.77;2.58;;;;;;;22.20;53.25;100046.64;1668636;84;21493;-62
2021/05/02 00:42:22;;;;;;;3.30;2.25;;;;;;;22.19;53.26;100039.51;1640617;86;21175;-61
2021/05/02 00:44:50;;;;;;;3.37;2.27;;;;;;;22.19;53.26;100044.45;1668493;85;21574;-61
2021/05/02 00:47:19;;;;;;;3.72;2.40;;;;;;;22.18;53.27;100032.34;1649946;84;21189;-61
2021/05/02 00:50:10;;;;;;;3.67;2.65;;;;;;;22.17;53.30;100031.53;1656844;85;21187;-61
2021/05/02 00:53:04;;;;;;;4.80;2.42;;;;;;;22.18;53.31;100032.34;1664266;85;21166;-61
2021/05/02 00:55:51;;;;;;;4.12;2.33;;;;;;;22.18;53.29;100035.11;1656941;84;21136;-61
2021/05/02 00:58:39;;;;;;;3.58;2.33;;;;;;;22.16;53.29;100024.94;1656759;84;21327;-61
2021/05/02 01:01:06;;;;;;;3.42;2.65;;;;;;;22.15;53.32;100017.20;1669845;85;21626;-62
2021/05/02 01:03:33;;;;;;;3.40;2.58;;;;;;;22.13;53.30;100011.22;1637292;85;21693;-62
2021/05/02 01:06:03;;;;;;;3.80;2.47;;;;;;;22.14;53.34;99995.41;1679542;84;21570;-62
2021/05/02 01:08:30;;;;;;;5.12;3.55;;;;;;;22.13;53.37;99989.62;1663798;85;21227;-62
2021/05/02 01:10:58;;;;;;;3.60;2.17;;;;;;;22.13;53.37;99995.17;1657025;85;23548;-62
2021/05/02 01:13:24;;;;;;;3.70;2.37;;;;;;;22.12;53.39;99996.31;1664560;83;21160;-62
2021/05/02 01:15:53;;;;;;;3.12;2.50;;;;;;;22.12;53.39;99990.78;1641474;85;21165;-61
2021/05/02 01:18:19;;;;;;;3.10;2.52;;;;;;;22.13;53.43;100000.71;1657645;85;21154;-62
2021/05/02 01:20:45;;;;;;;3.47;2.47;;;;;;;22.11;53.44;99985.81;1666569;85;21263;-62
2021/05/02 01:23:28;;;;;;;2.70;2.25;;;;;;;22.12;53.46;99994.93;1659373;85;22207;-61
2021/05/02 01:25:58;;;;;;;3.62;2.42;;;;;;;22.12;53.47;99991.59;1659696;85;21182;-62
2021/05/02 01:28:27;;;;;;;4.30;2.52;;;;;;;22.11;53.49;99992.73;1666636;85;21504;-61
2021/05/02 01:30:54;;;;;;;4.08;2.70;;;;;;;22.11;53.49;99991.92;1660532;84;21122;-62
2021/05/02 01:33:21;;;;;;;5.75;2.72;;;;;;;22.10;53.51;99989.76;1675974;85;21145;-61
2021/05/02 01:35:47;;;;;;;3.95;2.40;;;;;;;22.11;53.53;99975.30;1672614;85;21304;-62
2021/05/02 01:38:14;;;;;;;4.55;2.58;;;;;;;22.10;53.56;99962.63;1675883;83;21143;-62
2021/05/02 01:40:41;;;;;;;3.10;2.55;;;;;;;22.10;53.56;99961.25;1661293;84;21595;-62
2021/05/02 01:43:08;;;;;;;3.75;2.52;;;;;;;22.09;53.57;99954.89;1686608;83;21203;-62
2021/05/02 01:45:34;;;;;;;4.50;2.80;;;;;;;22.09;53.58;99954.89;1686653;83;21457;-62
2021/05/02 01:48:06;;;;;;;3.47;2.70;;;;;;;22.10;53.62;99959.86;1688160;83;22093;-62
2021/05/02 01:51:01;;;;;;;5.15;2.80;;;;;;;22.08;53.63;99958.81;1689945;83;22162;-62
2021/05/02 01:53:30;;;;;;;4.78;2.60;;;;;;;22.09;53.65;99967.36;1745483;79;21127;-62
2021/05/02 01:55:57;;;;;;;4.47;2.77;;;;;;;22.09;53.65;99965.16;1742412;80;21986;-62
2021/05/02 01:58:23;;;;;;;5.45;2.85;;;;;;;22.07;53.67;99955.80;1744063;79;21222;-62
2021/05/02 02:01:00;;;;;;;3.58;2.77;;;;;;;22.07;53.68;99964.11;1743678;80;21142;-62
2021/05/02 02:03:27;;;;;;;4.35;2.62;;;;;;;22.08;53.69;99963.55;1737923;80;21607;-62
2021/05/02 02:05:53;;;;;;;3.55;2.62;;;;;;;22.08;53.72;99967.70;1743731;81;21107;-62
2021/05/02 02:08:20;;;;;;;2.85;2.20;;;;;;;22.08;53.72;99966.31;1743222;80;21215;-62
2021/05/02 02:10:48;;;;;;;3.50;2.45;;;;;;;22.06;53.72;99961.14;1743617;80;21195;-61
2021/05/02 02:13:16;;;;;;;4.42;2.98;;;;;;;22.07;53.76;99957.77;1743452;80;21203;-62
2021/05/02 02:15:43;;;;;;;4.30;2.72;;;;;;;22.07;53.78;99959.15;1743519;80;21951;-61
2021/05/02 02:18:12;;;;;;;4.28;2.98;;;;;;;22.06;53.80;99954.21;1743399;80;21574;-62
2021/05/02 02:20:41;;;;;;;4.60;2.58;;;;;;;22.06;53.81;99946.48;1743749;81;21124;-61
2021/05/02 02:23:37;;;;;;;3.35;2.55;;;;;;;22.06;53.82;99952.02;1743527;80;21115;-63
2021/05/02 02:26:18;;;;;;;3.35;2.37;;;;;;;22.06;53.84;99956.98;1788996;78;22561;-62
2021/05/02 02:28:45;;;;;;;3.12;2.47;;;;;;;22.05;53.86;99950.39;1790123;78;21500;-62
2021/05/02 02:31:14;;;;;;;4.03;2.35;;;;;;;22.04;53.85;99948.20;1754002;80;21154;-61
2021/05/02 02:33:41;;;;;;;3.92;2.60;;;;;;;22.03;53.90;99943.81;1803533;78;21224;-61
2021/05/02 02:36:09;;;;;;;3.55;2.37;;;;;;;22.04;53.89;99944.05;1757374;79;21118;-62
2021/05/02 02:38:38;;;;;;;3.47;2.98;;;;;;;22.03;53.93;99941.61;1797382;78;22179;-62
2021/05/02 02:41:05;;;;;;;3.37;2.80;;;;;;;22.03;53.95;99937.45;1757006;80;21157;-61
2021/05/02 02:43:33;;;;;;;3.47;2.60;;;;;;;22.03;53.97;99934.69;1759888;79;21566;-62
2021/05/02 02:46:04;;;;;;;4.58;2.80;;;;;;;22.02;53.99;99934.48;1789503;78;21090;-63
2021/05/02 02:48:30;;;;;;;;;;;;;;;22.03;54.00;99931.92;1799235;78;21466;-61
2021/05/02 02:51:02;;;;;;;5.83;2.87;;;;;;;22.01;54.01;99932.28;1794494;78;21194;-62
2021/05/02 02:53:31;;;;;;;4.30;3.30;;;;;;;22.00;54.02;99930.66;1793773;78;21130;-63
2021/05/02 02:56:11;;;;;;;3.67;2.65;;;;;;;22.00;54.04;99938.16;1793189;78;21051;-63
2021/05/02 02:59:06;;;;;;;4.17;2.70;;;;;;;22.00;54.08;99932.63;1796311;78;20947;-63
2021/05/02 03:01:52;;;;;;;4.97;2.90;;;;;;;21.98;54.08;99932.95;1694542;83;21151;-62
2021/05/02 03:04:18;;;;;;;4.53;3.33;;;;;;;21.97;54.10;99931.37;1691715;83;22436;-62
2021/05/02 03:06:45;;;;;;;7.55;3.02;;;;;;;21.97;54.13;99933.33;1690793;83;21207;-62
2021/05/02 03:09:14;;;;;;;5.80;3.65;;;;;;;21.96;54.15;99936.67;1693739;83;21210;-62
2021/05/02 03:14:07;;;;;;;4.20;3.12;;;;;;;22.01;54.19;99937.02;1859444;75;22713;-60
2021/05/02 03:16:33;;;;;;;4.00;3.10;;;;;;;21.96;54.21;99935.28;1831986;77;21019;-62
2021/05/02 03:19:18;;;;;;;5.08;2.83;;;;;;;21.97;54.22;99933.33;1789055;77;21475;-62
2021/05/02 03:22:08;;;;;;;4.80;3.20;;;;;;;21.97;54.24;99930.55;1824791;77;21026;-60
2021/05/02 03:24:38;;;;;;;5.70;3.03;;;;;;;21.95;54.29;99936.43;1831146;77;21008;-60
2021/05/02 03:27:12;;;;;;;4.28;2.85;;;;;;;21.94;54.27;99943.12;1833484;77;21312;-62
2021/05/02 03:29:47;;;;;;;4.15;2.92;;;;;;;22.00;54.30;99943.70;1861052;75;22338;-60
2021/05/02 03:32:15;;;;;;;4.95;3.65;;;;;;;21.93;54.31;99956.76;1833014;77;21114;-59
2021/05/02 03:34:43;;;;;;;3.85;3.00;;;;;;;21.94;54.32;99970.03;1831265;77;21114;-59
2021/05/02 03:37:19;;;;;;;3.95;2.92;;;;;;;21.93;54.35;99958.14;1827649;77;21015;-62
2021/05/02 03:39:49;;;;;;;4.60;3.12;;;;;;;21.94;54.38;99953.41;1828575;77;21083;-61
2021/05/02 03:42:16;;;;;;;;;;;;;;;21.93;54.40;99960.91;1839401;77;21333;-62
2021/05/02 03:44:43;;;;;;;6.12;3.35;;;;;;;21.93;54.40;99953.98;1830285;77;20283;-61
2021/05/02 03:47:10;;;;;;;4.67;3.27;;;;;;;21.92;54.41;99955.67;1831727;77;21462;-61
2021/05/02 03:49:36;;;;;;;3.87;3.27;;;;;;;21.92;54.42;99931.59;1835231;77;21149;-62
2021/05/02 03:52:04;;;;;;;4.33;3.12;;;;;;;21.92;54.44;99936.30;1831669;77;21452;-62
2021/05/02 03:54:30;;;;;;;4.72;3.30;;;;;;;21.91;54.48;99935.48;1830819;77;21183;-61
2021/05/02 03:56:57;;;;;;;5.03;3.50;;;;;;;21.91;54.49;99949.33;1831647;77;21064;-61
2021/05/02 03:59:25;;;;;;;4.33;3.22;;;;;;;21.93;54.49;99954.56;1833317;77;21183;-61
2021/05/02 04:01:56;;;;;;;4.08;2.90;;;;;;;21.93;54.50;99961.48;1829596;77;21122;-62
2021/05/02 04:04:45;;;;;;;5.60;3.62;;;;;;;21.92;54.50;99953.75;1827060;77;21119;-62
2021/05/02 04:07:13;;;;;;;4.78;3.22;;;;;;;21.92;54.52;99951.52;1729551;81;21157;-61
2021/05/02 04:09:40;;;;;;;4.67;3.30;;;;;;;21.93;54.55;99953.98;1713263;81;21015;-62
2021/05/02 04:12:08;;;;;;;4.60;2.80;;;;;;;21.96;54.52;99962.17;1716821;81;21644;-62
2021/05/02 04:14:34;;;;;;;3.80;2.67;;;;;;;21.99;54.49;99960.08;1695545;82;21168;-61
2021/05/02 04:17:04;;;;;;;4.87;2.22;;;;;;;22.01;54.45;99957.78;1694143;82;21146;-62
2021/05/02 04:19:32;;;;;;;4.28;2.45;;;;;;;22.02;54.42;99955.25;1693598;84;21196;-62
2021/05/02 04:21:58;;;;;;;3.92;2.60;;;;;;;22.06;54.38;99956.17;1690758;82;21142;-62
2021/05/02 04:24:25;;;;;;;3.87;2.50;;;;;;;22.08;54.36;99957.42;1659878;84;21526;-62
2021/05/02 04:26:53;;;;;;;3.70;2.37;;;;;;;22.12;54.32;99950.61;1686146;83;21225;-62
2021/05/02 04:29:23;;;;;;;3.02;2.40;;;;;;;22.14;54.30;99950.51;1680188;83;21525;-62
2021/05/02 04:31:50;;;;;;;3.95;2.42;;;;;;;22.18;54.27;99948.66;1692281;82;21079;-62
2021/05/02 04:34:16;;;;;;;3.02;2.20;;;;;;;22.21;54.26;99957.64;1695283;82;21194;-62
2021/05/02 04:36:43;;;;;;;2.70;2.25;;;;;;;22.24;54.24;99951.39;1689529;82;21215;-62
2021/05/02 04:39:09;;;;;;;3.72;2.58;;;;;;;22.27;54.20;99955.45;1700702;82;21169;-62
2021/05/02 04:41:36;;;;;;;3.40;2.20;;;;;;;22.30;54.19;99952.78;1695325;82;21186;-63
2021/05/02 04:44:03;;;;;;;3.12;2.40;;;;;;;22.33;54.17;99952.66;1695548;82;21505;-62
2021/05/02 04:46:30;;;;;;;3.80;2.42;;;;;;;22.36;54.14;99954.75;1692312;82;21545;-62
2021/05/02 04:48:56;;;;;;;3.33;2.52;;;;;;;22.38;54.15;99944.10;1686307;83;22199;-61
2021/05/02 04:51:23;;;;;;;4.10;2.80;;;;;;;22.40;54.12;99940.98;1678755;83;21201;-61
2021/05/02 04:53:50;;;;;;;4.03;2.42;;;;;;;22.43;54.11;99937.52;1686504;83;21169;-62
2021/05/02 04:56:16;;;;;;;4.97;2.60;;;;;;;22.45;54.09;99942.14;1688154;83;21435;-62
2021/05/02 04:58:43;;;;;;;3.55;2.62;;;;;;;22.47;54.06;99934.27;1679341;83;21260;-62
2021/05/02 05:01:11;;;;;;;4.22;2.70;;;;;;;22.48;54.07;99937.27;1687846;83;21226;-62
2021/05/02 05:03:38;;;;;;;4.17;2.62;;;;;;;22.49;54.05;99942.44;1693970;83;21194;-63
2021/05/02 05:06:04;;;;;;;4.53;3.02;;;;;;;22.52;54.02;99940.95;1690501;83;21218;-61
2021/05/02 05:08:31;;;;;;;3.83;2.50;;;;;;;22.53;54.02;99941.97;1677490;83;21391;-62
2021/05/02 05:10:57;;;;;;;4.37;2.70;;;;;;;22.54;54.00;99934.46;1698996;83;21049;-62
2021/05/02 05:13:25;;;;;;;3.85;2.72;;;;;;;22.56;53.96;99930.77;1696606;83;21204;-62
2021/05/02 05:15:57;;;;;;;3.12;2.45;;;;;;;22.56;53.93;99928.00;1676524;83;21034;-62
2021/05/02 05:18:23;;;;;;;2.77;2.27;;;;;;;22.56;53.94;99938.52;1698138;83;21247;-61
2021/05/02 05:20:51;;;;;;;4.78;2.72;;;;;;;22.57;53.91;99927.66;1692224;83;21210;-62
2021/05/02 05:23:18;;;;;;;4.33;2.40;;;;;;;22.57;53.88;99929.05;1694640;83;21213;-61
2021/05/02 05:25:44;;;;;;;4.90;2.87;;;;;;;22.58;53.88;99934.80;1691151;83;21970;-61
2021/05/02 05:28:11;;;;;;;4.20;2.60;;;;;;;22.60;53.87;99938.61;1695942;83;21925;-62
2021/05/02 05:30:37;;;;;;;3.40;2.85;;;;;;;22.61;53.83;99943.81;1695321;83;21405;-62
2021/05/02 05:33:05;;;;;;;5.65;3.12;;;;;;;22.61;53.81;99945.20;1689705;82;21174;-62
2021/05/02 05:35:31;;;;;;;3.90;2.42;;;;;;;22.62;53.78;99942.63;1696924;83;21194;-62
2021/05/02 05:37:58;;;;;;;3.80;2.80;;;;;;;22.63;53.77;99943.45;1677195;83;21246;-62
2021/05/02 05:40:25;;;;;;;3.77;2.72;;;;;;;22.64;53.75;99932.59;1678923;83;21649;-62
2021/05/02 05:42:52;;;;;;;3.92;2.67;;;;;;;22.65;53.73;99929.48;1698907;83;21124;-63
2021/05/02 05:45:19;;;;;;;4.17;2.55;;;;;;;22.66;53.71;99928.90;1685368;83;21169;-62
2021/05/02 05:47:52;;;;;;;3.52;2.70;;;;;;;22.67;53.70;99931.30;1685405;83;21212;-61
2021/05/02 05:50:19;;;;;;;3.22;2.35;;;;;;;22.66;53.66;99925.52;1710935;83;21198;-63
2021/05/02 05:52:46;;;;;;;3.02;2.40;;;;;;;22.67;53.65;99927.14;1690761;83;21703;-62
2021/05/02 05:55:13;;;;;;;3.37;2.58;;;;;;;22.67;53.61;99927.14;1698003;82;21173;-62
2021/05/02 05:57:40;;;;;;;3.10;2.52;;;;;;;22.67;53.59;99935.46;1690157;82;20950;-62
2021/05/02 06:00:09;;;;;;;4.42;2.60;;;;;;;22.68;53.58;99939.85;1689969;83;21589;-62
2021/05/02 06:02:36;;;;;;;3.50;2.50;;;;;;;22.68;53.56;99934.31;1693647;83;21571;-62
2021/05/02 06:05:04;;;;;;;3.92;2.90;;;;;;;22.69;53.55;99923.48;1674338;83;21193;-62
2021/05/02 06:07:30;;;;;;;3.98;2.30;;;;;;;22.69;53.52;99925.45;1664103;83;21517;-62
2021/05/02 06:09:57;;;;;;;4.33;2.37;;;;;;;22.70;53.50;99920.91;1665263;84;21728;-62
2021/05/02 06:12:23;;;;;;;3.65;2.50;;;;;;;22.70;53.49;99916.75;1666413;84;21564;-62
2021/05/02 06:14:49;;;;;;;3.35;2.50;;;;;;;22.70;53.45;99912.59;1662642;84;22285;-62
2021/05/02 06:17:16;;;;;;;2.98;2.67;;;;;;;22.72;53.43;99917.80;1666702;84;21574;-63
2021/05/02 06:19:42;;;;;;;3.52;2.52;;;;;;;22.73;53.42;99918.03;1667180;84;21163;-62
2021/05/02 06:22:09;;;;;;;3.42;2.70;;;;;;;22.72;53.41;99922.77;1666256;84;21276;-62
2021/05/02 06:24:35;;;;;;;3.60;2.58;;;;;;;22.74;53.38;99921.82;1658805;84;21273;-62
2021/05/02 06:27:02;;;;;;;3.75;2.80;;;;;;;22.74;53.36;99911.33;1666826;84;21222;-62
2021/05/02 06:29:29;;;;;;;2.95;2.25;;;;;;;22.74;53.33;99913.50;1665355;84;21160;-61
2021/05/02 06:31:55;;;;;;;3.37;2.50;;;;;;;22.75;53.31;99904.61;1641691;85;21585;-62
2021/05/02 06:34:21;;;;;;;3.72;2.60;;;;;;;22.76;53.30;99905.65;1645708;85;21203;-62
2021/05/02 06:36:48;;;;;;;4.03;3.00;;;;;;;22.76;53.26;99904.27;1663734;84;21163;-62
2021/05/02 06:39:14;;;;;;;3.90;2.70;;;;;;;22.78;53.24;99905.88;1663385;84;21236;-62
2021/05/02 06:41:45;;;;;;;3.27;2.52;;;;;;;22.78;53.23;99907.27;1642578;85;21557;-62
2021/05/02 06:44:09;;;;;;;3.85;2.70;;;;;;;22.79;53.23;99915.83;1664868;84;21139;-62
2021/05/02 06:46:37;;;;;;;4.22;2.95;;;;;;;22.80;53.20;99912.67;1666928;84;21187;-61
2021/05/02 06:49:06;;;;;;;4.25;2.90;;;;;;;22.79;53.18;99904.73;1667363;84;21555;-62
2021/05/02 06:51:32;;;;;;;3.45;2.65;;;;;;;22.80;53.18;99904.93;1664095;84;21212;-62
2021/05/02 06:53:59;;;;;;;3.55;2.67;;;;;;;22.80;53.19;99903.55;1668743;84;21160;-62
2021/05/02 06:56:26;;;;;;;4.03;2.83;;;;;;;22.81;53.17;99901.00;1664833;84;21203;-62
2021/05/02 06:58:53;;;;;;;5.72;3.20;;;;;;;22.81;53.15;99904.59;1668721;84;20993;-62
2021/05/02 07:01:20;;;;;;;4.35;2.80;;;;;;;22.82;53.16;99899.85;1666175;84;21192;-62
2021/05/02 07:03:47;;;;;;;4.12;3.22;;;;;;;22.83;53.15;99905.63;1663381;84;22170;-62
2021/05/02 07:06:14;;;;;;;4.53;2.92;;;;;;;22.83;53.14;99900.09;1663629;83;21924;-62
2021/05/02 07:08:40;;;;;;;4.53;3.15;;;;;;;22.83;53.13;99898.09;1679919;82;21486;-62
2021/05/02 07:11:07;;;;;;;4.83;3.08;;;;;;;22.84;53.11;99901.67;1669092;83;21181;-62
2021/05/02 07:13:34;;;;;;;3.55;2.67;;;;;;;22.84;53.10;99909.42;1671472;83;21225;-62
2021/05/02 07:16:00;;;;;;;4.58;3.08;;;;;;;22.85;53.10;99911.04;1686366;83;21245;-63
2021/05/02 07:18:32;;;;;;;3.92;2.90;;;;;;;22.86;53.08;99910.46;1673244;83;21227;-61
2021/05/02 07:20:56;;;;;;;3.83;2.90;;;;;;;22.86;53.06;99902.95;1680669;83;21446;-62
2021/05/02 07:23:22;;;;;;;3.42;2.37;;;;;;;22.87;53.05;99903.77;1671369;83;21126;-62
2021/05/02 07:25:49;;;;;;;4.50;3.17;;;;;;;22.88;53.05;99899.80;1631729;86;21178;-62
2021/05/02 07:28:15;;;;;;;3.55;2.83;;;;;;;22.89;53.03;99905.59;1638122;86;21615;-62
2021/05/02 07:30:42;;;;;;;5.83;3.33;;;;;;;22.88;52.99;99911.70;1659032;84;21927;-62
2021/05/02 07:33:08;;;;;;;4.37;2.95;;;;;;;22.89;52.99;99922.23;1677231;84;21214;-61
2021/05/02 07:35:34;;;;;;;5.72;3.50;;;;;;;22.88;52.99;99925.58;1666006;85;21633;-61
2021/05/02 07:38:02;;;;;;;4.60;2.98;;;;;;;22.88;52.96;99918.64;1680868;85;21558;-62
2021/05/02 07:40:29;;;;;;;4.78;3.12;;;;;;;22.90;52.95;99915.53;1657657;85;21214;-62
2021/05/02 07:42:55;;;;;;;3.98;3.22;;;;;;;22.90;52.91;99926.63;1653487;85;21230;-62
2021/05/02 07:45:22;;;;;;;5.00;2.90;;;;;;;22.89;52.91;99924.42;1668202;83;21152;-62
2021/05/02 07:47:48;;;;;;;5.37;3.02;;;;;;;22.90;52.88;99923.27;1677854;82;21054;-62
2021/05/02 07:50:14;;;;;;;4.03;3.25;;;;;;;22.90;52.86;99924.66;1643028;86;21306;-62
2021/05/02 07:52:46;;;;;;;4.87;3.20;;;;;;;22.89;52.85;99927.20;1650270;85;21308;-62
2021/05/02 07:55:11;;;;;;;4.58;3.25;;;;;;;22.88;52.86;99930.31;1651340;85;21190;-63
2021/05/02 07:57:37;;;;;;;4.83;3.27;;;;;;;22.88;52.85;99929.73;1666012;85;21168;-62
2021/05/02 08:00:05;;;;;;;3.77;3.25;;;;;;;22.88;52.86;99927.54;1666978;85;21118;-62
2021/05/02 08:02:32;;;;;;;5.00;3.05;;;;;;;22.87;52.86;99923.98;1662893;85;21201;-62
2021/05/02 08:04:59;;;;;;;4.75;3.08;;;;;;;22.86;52.85;99913.23;1653331;85;21632;-62
2021/05/02 08:07:25;;;;;;;4.55;3.22;;;;;;;22.87;52.85;99916.24;1665080;84;21201;-61
2021/05/02 08:09:51;;;;;;;4.62;3.80;;;;;;;22.86;52.85;99917.40;1673752;84;21608;-61
2021/05/02 08:12:18;;;;;;;7.10;3.30;;;;;;;22.85;52.84;99917.97;1671271;84;21177;-61
2021/05/02 08:14:45;;;;;;;4.45;3.25;;;;;;;22.87;52.84;99924.56;1676331;84;21644;-61
2021/05/02 08:17:11;;;;;;;5.35;3.10;;;;;;;22.86;52.83;99922.95;1677207;84;21569;-62
2021/05/02 08:19:37;;;;;;;4.92;3.37;;;;;;;22.87;52.84;99927.34;1677617;84;21172;-62
2021/05/02 08:22:04;;;;;;;4.08;3.35;;;;;;;22.87;52.85;99921.79;1669247;84;21628;-62
2021/05/02 08:24:31;;;;;;;6.30;3.60;;;;;;;22.87;52.84;99910.70;1651074;85;21141;-62
2021/05/02 08:26:58;;;;;;;4.10;3.40;;;;;;;22.89;52.85;99902.81;1662860;84;21140;-62
2021/05/02 08:29:24;;;;;;;6.08;3.70;;;;;;;22.91;52.83;99907.44;1674863;84;21211;-62
2021/05/02 08:31:50;;;;;;;4.60;3.33;;;;;;;22.90;52.82;99916.91;1698730;82;21181;-63
2021/05/02 08:34:17;;;;;;;4.80;3.20;;;;;;;22.91;52.82;99914.38;1694609;82;21145;-61
2021/05/02 08:36:43;;;;;;;4.12;2.92;;;;;;;22.91;52.82;99912.41;1697524;82;21966;-61
2021/05/02 08:39:10;;;;;;;4.67;3.37;;;;;;;22.92;52.81;99908.45;1705000;82;21189;-61
2021/05/02 08:41:37;;;;;;;5.03;3.02;;;;;;;22.92;52.79;99915.39;1696037;82;21568;-61
2021/05/02 08:44:04;;;;;;;4.67;3.22;;;;;;;22.94;52.75;99919.20;1700855;82;21980;-61
2021/05/02 08:46:31;;;;;;;4.40;3.42;;;;;;;22.95;52.77;99915.28;1643016;85;21563;-60
2021/05/02 08:48:57;;;;;;;6.00;3.50;;;;;;;22.95;52.75;99915.28;1704609;82;21959;-61
2021/05/02 08:51:24;;;;;;;5.10;3.50;;;;;;;22.94;52.72;99916.43;1695020;82;21095;-61
2021/05/02 08:53:50;;;;;;;4.85;3.27;;;;;;;22.94;52.72;99915.05;1696840;82;22159;-61
2021/05/02 08:56:17;;;;;;;4.08;2.98;;;;;;;22.94;52.72;99917.23;1653829;85;21213;-61
2021/05/02 08:58:44;;;;;;;5.10;3.27;;;;;;;22.95;52.72;99917.47;1678366;82;21551;-61
2021/05/02 09:01:10;;;;;;;5.00;3.12;;;;;;;22.95;52.71;99916.09;1697418;82;21177;-61
2021/05/02 09:03:46;;;;;;;4.25;3.12;;;;;;;22.97;52.72;99913.75;1700519;82;21607;-61
2021/05/02 09:06:22;;;;;;;4.70;3.15;;;;;;;22.97;52.69;99913.75;1702780;82;21208;-62
2021/05/02 09:08:51;;;;;;;5.15;3.35;;;;;;;22.97;52.69;99903.23;1700370;82;21237;-61
2021/05/02 09:11:37;;;;;;;4.70;3.10;;;;;;;22.99;52.28;99898.14;1700058;82;21192;-61
2021/05/02 09:14:07;;;;;;;4.40;3.10;;;;;;;22.99;52.28;99898.14;1667791;84;21647;-61
2021/05/02 09:16:53;;;;;;;4.67;3.65;;;;;;;22.99;52.67;99897.57;1693819;82;21247;-62
2021/05/02 09:19:22;;;;;;;4.85;3.40;;;;;;;23.00;52.66;99900.55;1695413;83;21110;-61
2021/05/02 09:21:48;;;;;;;4.90;3.30;;;;;;;23.02;52.64;99899.63;1664713;84;21612;-61
2021/05/02 09:24:30;;;;;;;5.08;3.55;;;;;;;23.05;52.62;99907.80;1687988;83;21161;-62
2021/05/02 09:27:14;;;;;;;4.90;2.85;;;;;;;23.06;52.59;99900.52;1657681;84;21569;-62
2021/05/02 09:29:45;;;;;;;4.80;3.22;;;;;;;23.07;52.56;99893.01;1687723;83;21244;-61
2021/05/02 09:32:14;;;;;;;5.10;3.42;;;;;;;23.09;52.54;99893.45;1695299;83;21218;-61
2021/05/02 09:34:52;;;;;;;6.35;3.65;;;;;;;23.10;52.52;99893.67;1695248;83;21372;-61
2021/05/02 09:37:22;;;;;;;4.35;3.60;;;;;;;23.12;52.51;99895.53;1681648;83;21209;-61
2021/05/02 09:40:00;;;;;;;5.22;3.60;;;;;;;23.12;52.48;99894.95;1683274;83;21580;-61
2021/05/02 09:42:39;;;;;;;4.75;3.27;;;;;;;23.13;52.46;99891.56;1696965;82;21185;-62
2021/05/02 09:45:11;;;;;;;4.28;3.35;;;;;;;23.15;52.43;99892.84;1663437;84;21610;-62
2021/05/02 09:47:42;;;;;;;5.28;3.10;;;;;;;23.14;52.39;99882.90;1682620;84;21271;-62
2021/05/02 09:50:23;;;;;;;4.25;2.87;;;;;;;23.16;52.38;99885.33;1681781;84;21156;-62
2021/05/02 09:53:02;;;;;;;5.12;3.47;;;;;;;23.17;52.36;99885.53;1678891;84;21161;-62
2021/05/02 09:55:36;;;;;;;5.20;3.60;;;;;;;23.16;52.35;99881.16;1665153;85;21175;-62
2021/05/02 09:58:08;;;;;;;4.70;3.52;;;;;;;23.16;52.32;99871.45;1693412;84;21209;-62
2021/05/02 10:00:41;;;;;;;4.28;3.17;;;;;;;23.16;52.31;99871.45;1691117;84;21206;-62
2021/05/02 10:03:13;;;;;;;4.70;3.47;;;;;;;23.16;52.30;99867.29;1694350;84;21169;-62
2021/05/02 10:06:02;;;;;;;4.60;3.33;;;;;;;23.16;52.29;99865.91;1686328;84;21084;-62
2021/05/02 10:08:37;;;;;;;4.15;3.05;;;;;;;23.16;52.28;99865.33;1653941;84;21179;-61
2021/05/02 10:11:07;;;;;;;5.10;3.77;;;;;;;23.16;52.28;99858.39;1700038;82;22538;-61
2021/05/02 10:13:34;;;;;;;4.75;3.33;;;;;;;23.17;52.27;99855.81;1696040;82;21527;-61
2021/05/02 10:16:01;;;;;;;4.58;3.27;;;;;;;23.18;52.23;99843.56;1700183;82;20991;-60
2021/05/02 10:18:27;;;;;;;5.92;3.65;;;;;;;23.19;52.23;99845.75;1696759;82;21568;-61
2021/05/02 10:20:54;;;;;;;4.65;3.50;;;;;;;23.21;52.21;99850.38;1677866;84;21130;-61
2021/05/02 10:23:21;;;;;;;4.33;3.12;;;;;;;23.23;52.18;99843.88;1659014;84;21173;-61
2021/05/02 10:25:49;;;;;;;4.30;3.30;;;;;;;23.26;52.16;99852.05;1670744;84;21173;-61
2021/05/02 10:28:22;;;;;;;4.85;3.62;;;;;;;23.28;52.14;99846.97;1699781;82;21205;-60
2021/05/02 10:30:50;;;;;;;4.37;3.45;;;;;;;23.30;52.09;99843.27;1699381;83;21248;-61
2021/05/02 10:33:33;;;;;;;4.92;3.40;;;;;;;23.32;52.07;99845.89;1697551;82;21184;-60
2021/05/02 10:36:05;;;;;;;4.62;3.17;;;;;;;23.34;52.06;99846.32;1696189;82;21118;-61
2021/05/02 10:38:55;;;;;;;5.15;3.25;;;;;;;23.35;52.03;99845.16;1697947;82;21220;-62
2021/05/02 10:41:31;;;;;;;;;;;;;;;23.35;52.04;99849.91;1703142;82;21082;-62
2021/05/02 10:44:20;;;;;;;3.87;3.20;;;;;;;23.35;52.03;99841.58;1688524;82;20229;-62
2021/05/02 10:46:52;;;;;;;5.22;3.33;;;;;;;23.34;52.05;99846.93;1723143;81;21512;-62
2021/05/02 10:49:24;;;;;;;4.72;3.55;;;;;;;23.35;52.08;99847.94;1723255;81;22068;-62
2021/05/02 10:51:53;;;;;;;5.45;3.62;;;;;;;23.36;52.10;99848.17;1723478;81;21153;-62
2021/05/02 10:54:23;;;;;;;6.20;3.90;;;;;;;23.38;52.15;99849.20;1722427;81;21157;-62
2021/05/02 10:56:57;;;;;;;6.13;3.47;;;;;;;23.40;52.15;99843.51;1720753;81;21216;-62
2021/05/02 10:59:48;;;;;;;5.33;3.70;;;;;;;23.41;52.19;99835.41;1724521;81;21177;-62
2021/05/02 11:02:36;;;;;;;;;;;;;;;23.44;52.24;99835.30;1726734;81;23658;-61
2021/05/02 11:05:04;;;;;;;5.12;3.67;;;;;;;23.46;52.25;99836.56;1721584;81;20230;-62
2021/05/02 11:07:40;;;;;;;5.58;3.80;;;;;;;23.46;52.26;99835.75;1723010;81;21248;-60
2021/05/02 11:10:12;;;;;;;5.03;3.87;;;;;;;23.49;52.28;99829.47;1724122;81;21165;-61
2021/05/02 11:12:39;;;;;;;5.10;3.92;;;;;;;23.51;52.33;99826.55;1724529;81;21124;-61
2021/05/02 11:15:31;;;;;;;5.42;3.72;;;;;;;23.53;52.36;99826.20;1724553;81;21218;-61
2021/05/02 11:17:57;;;;;;;4.72;3.62;;;;;;;23.56;52.38;99820.72;1722573;81;21137;-61
2021/05/02 11:20:51;;;;;;;6.37;4.12;;;;;;;23.57;52.40;99819.56;1723476;81;21157;-62
2021/05/02 11:23:19;;;;;;;5.75;3.83;;;;;;;23.60;52.42;99818.02;1721162;81;20983;-61
2021/05/02 11:25:59;;;;;;;5.80;4.03;;;;;;;23.62;52.45;99823.45;1721889;81;21200;-61
2021/05/02 11:28:35;;;;;;;5.00;3.83;;;;;;;23.65;52.46;99819.95;1722921;81;21135;-61
2021/05/02 11:31:01;;;;;;;5.20;3.87;;;;;;;23.68;52.49;99827.55;1724209;82;21208;-61
2021/05/02 11:33:28;;;;;;;4.70;4.00;;;;;;;23.70;52.50;99820.25;1724400;81;21177;-61
2021/05/02 11:35:56;;;;;;;5.85;3.95;;;;;;;23.73;52.49;99814.55;1723107;81;21018;-61
2021/05/02 11:38:35;;;;;;;6.55;4.37;;;;;;;23.76;52.50;99818.81;1721981;81;21141;-62
2021/05/02 11:41:06;;;;;;;5.60;4.03;;;;;;;23.80;52.52;99823.05;1715551;82;21208;-61
2021/05/02 11:43:30;;;;;;;6.33;4.60;;;;;;;23.82;52.52;99811.79;1695608;84;21205;-61
2021/05/02 11:46:01;;;;;;;6.20;4.58;;;;;;;23.86;52.53;99822.97;1714341;82;20970;-61
2021/05/02 11:48:37;;;;;;;6.47;4.40;;;;;;;23.88;52.51;99822.05;1705713;82;21135;-61